Terminal Aerodrome Forecast
Issued by NWS

Home | Current Version | Previous Version | Text Only | Print | Product List | Glossary Off
Versions: 1 2 3 4 5 6 7 8 9 10 11 12 13

000
FTUS45 KGGW 200536
TAFGDV
TAF
KGDV 200536Z 2006/2106 VRB05KT P6SM FEW200
     FM201200 26004KT 2SM BR FEW090 SCT140
     FM201500 26005KT 1SM BR BKN090
     FM201800 28006KT 3SM BR BKN090
     FM202100 29007KT P6SM BKN100=

USA.gov is the U.S. government's official web portal to all federal, state and local government web resources and services.